sensor_id;sensor_type;location;lat;lon;timestamp;P1;durP1;ratioP1;P2;durP2;ratioP2
13493;SDS011;6819;50.886;4.332;2023-06-26T00:02:23;4.85;;;4.05;;
13493;SDS011;6819;50.886;4.332;2023-06-26T00:04:49;8.55;;;4.68;;
13493;SDS011;6819;50.886;4.332;2023-06-26T00:07:18;5.30;;;4.00;;
13493;SDS011;6819;50.886;4.332;2023-06-26T00:09:44;6.60;;;4.20;;
13493;SDS011;6819;50.886;4.332;2023-06-26T00:12:11;10.82;;;4.20;;
13493;SDS011;6819;50.886;4.332;2023-06-26T00:14:37;9.95;;;4.50;;
13493;SDS011;6819;50.886;4.332;2023-06-26T00:17:03;6.82;;;4.05;;
13493;SDS011;6819;50.886;4.332;2023-06-26T00:19:29;6.47;;;3.65;;
13493;SDS011;6819;50.886;4.332;2023-06-26T00:21:55;7.80;;;3.95;;
13493;SDS011;6819;50.886;4.332;2023-06-26T00:24:21;5.50;;;3.45;;
13493;SDS011;6819;50.886;4.332;2023-06-26T00:26:47;5.75;;;3.00;;
13493;SDS011;6819;50.886;4.332;2023-06-26T00:29:13;7.93;;;3.17;;
13493;SDS011;6819;50.886;4.332;2023-06-26T00:31:39;5.90;;;3.30;;
13493;SDS011;6819;50.886;4.332;2023-06-26T00:34:05;8.70;;;3.63;;
13493;SDS011;6819;50.886;4.332;2023-06-26T00:36:31;4.88;;;3.10;;
13493;SDS011;6819;50.886;4.332;2023-06-26T00:38:58;7.55;;;3.17;;
13493;SDS011;6819;50.886;4.332;2023-06-26T00:41:25;5.47;;;3.40;;
13493;SDS011;6819;50.886;4.332;2023-06-26T00:43:51;8.18;;;3.70;;
13493;SDS011;6819;50.886;4.332;2023-06-26T00:46:17;4.60;;;3.10;;
13493;SDS011;6819;50.886;4.332;2023-06-26T00:48:44;4.45;;;2.97;;
13493;SDS011;6819;50.886;4.332;2023-06-26T00:51:10;8.38;;;3.67;;
13493;SDS011;6819;50.886;4.332;2023-06-26T00:53:36;3.97;;;3.00;;
13493;SDS011;6819;50.886;4.332;2023-06-26T00:56:02;10.70;;;3.95;;
13493;SDS011;6819;50.886;4.332;2023-06-26T00:58:28;6.72;;;3.33;;
13493;SDS011;6819;50.886;4.332;2023-06-26T01:00:54;5.13;;;3.47;;
13493;SDS011;6819;50.886;4.332;2023-06-26T01:03:22;6.70;;;3.47;;
13493;SDS011;6819;50.886;4.332;2023-06-26T01:05:48;8.93;;;3.20;;
13493;SDS011;6819;50.886;4.332;2023-06-26T01:08:15;5.40;;;3.17;;
13493;SDS011;6819;50.886;4.332;2023-06-26T01:10:41;5.88;;;3.15;;
13493;SDS011;6819;50.886;4.332;2023-06-26T01:13:08;6.60;;;3.38;;
13493;SDS011;6819;50.886;4.332;2023-06-26T01:15:34;6.50;;;3.10;;
13493;SDS011;6819;50.886;4.332;2023-06-26T01:18:00;7.45;;;3.22;;
13493;SDS011;6819;50.886;4.332;2023-06-26T01:20:31;4.38;;;3.00;;
13493;SDS011;6819;50.886;4.332;2023-06-26T01:23:05;9.20;;;3.00;;
13493;SDS011;6819;50.886;4.332;2023-06-26T01:25:39;6.70;;;3.15;;
13493;SDS011;6819;50.886;4.332;2023-06-26T01:28:07;9.95;;;3.55;;
13493;SDS011;6819;50.886;4.332;2023-06-26T01:30:34;7.68;;;2.90;;
13493;SDS011;6819;50.886;4.332;2023-06-26T01:33:00;7.38;;;3.28;;
13493;SDS011;6819;50.886;4.332;2023-06-26T01:35:27;10.00;;;3.22;;
13493;SDS011;6819;50.886;4.332;2023-06-26T01:38:10;7.43;;;2.90;;
13493;SDS011;6819;50.886;4.332;2023-06-26T01:40:36;4.75;;;2.97;;
13493;SDS011;6819;50.886;4.332;2023-06-26T01:43:02;8.65;;;3.28;;
13493;SDS011;6819;50.886;4.332;2023-06-26T01:45:29;7.40;;;2.95;;
13493;SDS011;6819;50.886;4.332;2023-06-26T01:47:56;7.63;;;2.88;;
13493;SDS011;6819;50.886;4.332;2023-06-26T01:50:24;6.88;;;2.90;;
13493;SDS011;6819;50.886;4.332;2023-06-26T01:53:02;5.70;;;2.90;;
13493;SDS011;6819;50.886;4.332;2023-06-26T01:58:01;5.60;;;2.80;;
13493;SDS011;6819;50.886;4.332;2023-06-26T02:00:28;6.57;;;2.97;;
13493;SDS011;6819;50.886;4.332;2023-06-26T02:02:54;6.10;;;3.40;;
13493;SDS011;6819;50.886;4.332;2023-06-26T02:05:20;6.70;;;3.30;;
13493;SDS011;6819;50.886;4.332;2023-06-26T02:07:48;6.82;;;3.40;;
13493;SDS011;6819;50.886;4.332;2023-06-26T02:10:14;7.50;;;3.15;;
13493;SDS011;6819;50.886;4.332;2023-06-26T02:12:40;5.63;;;2.83;;
13493;SDS011;6819;50.886;4.332;2023-06-26T02:15:06;9.25;;;3.10;;
13493;SDS011;6819;50.886;4.332;2023-06-26T02:17:33;6.50;;;3.40;;
13493;SDS011;6819;50.886;4.332;2023-06-26T02:19:59;8.18;;;3.40;;
13493;SDS011;6819;50.886;4.332;2023-06-26T02:22:25;7.10;;;3.30;;
13493;SDS011;6819;50.886;4.332;2023-06-26T02:24:53;9.38;;;3.25;;
13493;SDS011;6819;50.886;4.332;2023-06-26T02:27:19;8.00;;;3.55;;
13493;SDS011;6819;50.886;4.332;2023-06-26T02:29:45;7.68;;;2.95;;
13493;SDS011;6819;50.886;4.332;2023-06-26T02:32:11;8.52;;;3.47;;
13493;SDS011;6819;50.886;4.332;2023-06-26T02:34:37;6.57;;;3.13;;
13493;SDS011;6819;50.886;4.332;2023-06-26T02:37:03;5.85;;;2.78;;
13493;SDS011;6819;50.886;4.332;2023-06-26T02:39:31;8.38;;;3.65;;
13493;SDS011;6819;50.886;4.332;2023-06-26T02:41:57;9.57;;;3.50;;
13493;SDS011;6819;50.886;4.332;2023-06-26T02:44:23;8.98;;;3.60;;
13493;SDS011;6819;50.886;4.332;2023-06-26T02:46:49;7.80;;;3.58;;
13493;SDS011;6819;50.886;4.332;2023-06-26T02:49:15;4.80;;;3.28;;
13493;SDS011;6819;50.886;4.332;2023-06-26T02:51:41;7.00;;;3.53;;
13493;SDS011;6819;50.886;4.332;2023-06-26T02:54:07;7.85;;;3.67;;
13493;SDS011;6819;50.886;4.332;2023-06-26T02:56:33;7.07;;;3.17;;
13493;SDS011;6819;50.886;4.332;2023-06-26T02:58:59;9.93;;;4.30;;
13493;SDS011;6819;50.886;4.332;2023-06-26T03:01:25;9.63;;;3.70;;
13493;SDS011;6819;50.886;4.332;2023-06-26T03:03:51;10.75;;;3.63;;
13493;SDS011;6819;50.886;4.332;2023-06-26T03:06:18;10.13;;;3.78;;
13493;SDS011;6819;50.886;4.332;2023-06-26T03:08:44;10.23;;;3.60;;
13493;SDS011;6819;50.886;4.332;2023-06-26T03:11:10;7.47;;;4.10;;
13493;SDS011;6819;50.886;4.332;2023-06-26T03:13:36;12.65;;;4.25;;
13493;SDS011;6819;50.886;4.332;2023-06-26T03:16:03;13.25;;;4.68;;
13493;SDS011;6819;50.886;4.332;2023-06-26T03:18:29;17.80;;;4.50;;
13493;SDS011;6819;50.886;4.332;2023-06-26T03:20:55;12.43;;;4.07;;
13493;SDS011;6819;50.886;4.332;2023-06-26T03:23:22;11.15;;;4.05;;
13493;SDS011;6819;50.886;4.332;2023-06-26T03:25:48;14.80;;;4.18;;
13493;SDS011;6819;50.886;4.332;2023-06-26T03:28:14;13.95;;;4.32;;
13493;SDS011;6819;50.886;4.332;2023-06-26T03:30:40;11.82;;;3.85;;
13493;SDS011;6819;50.886;4.332;2023-06-26T03:33:06;13.77;;;4.10;;
13493;SDS011;6819;50.886;4.332;2023-06-26T03:35:32;18.38;;;4.28;;
13493;SDS011;6819;50.886;4.332;2023-06-26T03:37:58;12.05;;;4.10;;
13493;SDS011;6819;50.886;4.332;2023-06-26T03:40:25;11.43;;;4.65;;
13493;SDS011;6819;50.886;4.332;2023-06-26T03:42:52;7.25;;;4.28;;
13493;SDS011;6819;50.886;4.332;2023-06-26T03:45:18;9.73;;;3.97;;
13493;SDS011;6819;50.886;4.332;2023-06-26T03:47:45;10.60;;;4.45;;
13493;SDS011;6819;50.886;4.332;2023-06-26T03:50:13;13.45;;;4.47;;
13493;SDS011;6819;50.886;4.332;2023-06-26T03:52:39;15.57;;;4.22;;
13493;SDS011;6819;50.886;4.332;2023-06-26T03:55:05;13.45;;;5.03;;
13493;SDS011;6819;50.886;4.332;2023-06-26T03:57:31;17.10;;;4.35;;
13493;SDS011;6819;50.886;4.332;2023-06-26T03:59:57;15.05;;;3.97;;
13493;SDS011;6819;50.886;4.332;2023-06-26T04:02:23;16.13;;;4.40;;
13493;SDS011;6819;50.886;4.332;2023-06-26T04:04:49;13.10;;;4.03;;
13493;SDS011;6819;50.886;4.332;2023-06-26T04:07:17;8.82;;;4.28;;
13493;SDS011;6819;50.886;4.332;2023-06-26T04:09:43;11.07;;;4.00;;
13493;SDS011;6819;50.886;4.332;2023-06-26T04:12:09;12.82;;;4.18;;
13493;SDS011;6819;50.886;4.332;2023-06-26T04:14:35;14.73;;;4.70;;
13493;SDS011;6819;50.886;4.332;2023-06-26T04:17:01;15.85;;;4.40;;
13493;SDS011;6819;50.886;4.332;2023-06-26T04:19:28;16.00;;;3.88;;
13493;SDS011;6819;50.886;4.332;2023-06-26T04:21:54;15.50;;;4.20;;
13493;SDS011;6819;50.886;4.332;2023-06-26T04:24:20;14.38;;;4.55;;
13493;SDS011;6819;50.886;4.332;2023-06-26T04:26:46;13.23;;;3.90;;
13493;SDS011;6819;50.886;4.332;2023-06-26T04:29:12;20.17;;;5.22;;
13493;SDS011;6819;50.886;4.332;2023-06-26T04:31:38;16.55;;;3.80;;
13493;SDS011;6819;50.886;4.332;2023-06-26T04:34:05;14.80;;;4.20;;
13493;SDS011;6819;50.886;4.332;2023-06-26T04:36:31;15.75;;;4.25;;
13493;SDS011;6819;50.886;4.332;2023-06-26T04:38:58;14.48;;;4.07;;
13493;SDS011;6819;50.886;4.332;2023-06-26T04:41:24;17.67;;;4.30;;
13493;SDS011;6819;50.886;4.332;2023-06-26T04:43:50;14.82;;;4.03;;
13493;SDS011;6819;50.886;4.332;2023-06-26T04:46:16;13.10;;;3.88;;
13493;SDS011;6819;50.886;4.332;2023-06-26T04:48:43;14.75;;;3.80;;
13493;SDS011;6819;50.886;4.332;2023-06-26T04:51:12;12.60;;;4.05;;
13493;SDS011;6819;50.886;4.332;2023-06-26T04:53:38;18.60;;;4.32;;
13493;SDS011;6819;50.886;4.332;2023-06-26T04:56:04;13.10;;;3.60;;
13493;SDS011;6819;50.886;4.332;2023-06-26T04:58:30;11.02;;;4.05;;
13493;SDS011;6819;50.886;4.332;2023-06-26T05:00:56;11.00;;;3.50;;
13493;SDS011;6819;50.886;4.332;2023-06-26T05:03:23;13.65;;;3.78;;
13493;SDS011;6819;50.886;4.332;2023-06-26T05:05:49;12.35;;;4.18;;
13493;SDS011;6819;50.886;4.332;2023-06-26T05:08:21;13.00;;;3.92;;
13493;SDS011;6819;50.886;4.332;2023-06-26T05:10:47;10.88;;;3.67;;
13493;SDS011;6819;50.886;4.332;2023-06-26T05:13:13;14.55;;;3.63;;
13493;SDS011;6819;50.886;4.332;2023-06-26T05:15:40;18.23;;;3.38;;
13493;SDS011;6819;50.886;4.332;2023-06-26T05:18:07;11.68;;;3.30;;
13493;SDS011;6819;50.886;4.332;2023-06-26T05:20:33;11.93;;;3.58;;
13493;SDS011;6819;50.886;4.332;2023-06-26T05:23:01;14.68;;;3.17;;
13493;SDS011;6819;50.886;4.332;2023-06-26T05:25:27;12.65;;;2.97;;
13493;SDS011;6819;50.886;4.332;2023-06-26T05:27:54;13.82;;;3.70;;
13493;SDS011;6819;50.886;4.332;2023-06-26T05:30:20;7.25;;;3.30;;
13493;SDS011;6819;50.886;4.332;2023-06-26T05:32:47;14.98;;;4.07;;
13493;SDS011;6819;50.886;4.332;2023-06-26T05:35:13;16.45;;;3.55;;
13493;SDS011;6819;50.886;4.332;2023-06-26T05:37:39;15.10;;;3.30;;
13493;SDS011;6819;50.886;4.332;2023-06-26T05:40:06;14.23;;;3.35;;
13493;SDS011;6819;50.886;4.332;2023-06-26T05:42:33;8.88;;;3.00;;
13493;SDS011;6819;50.886;4.332;2023-06-26T05:44:59;14.32;;;3.13;;
13493;SDS011;6819;50.886;4.332;2023-06-26T05:47:25;10.57;;;3.00;;
13493;SDS011;6819;50.886;4.332;2023-06-26T05:49:51;11.13;;;3.00;;
13493;SDS011;6819;50.886;4.332;2023-06-26T05:52:17;10.35;;;2.83;;
13493;SDS011;6819;50.886;4.332;2023-06-26T05:54:44;9.07;;;2.80;;
13493;SDS011;6819;50.886;4.332;2023-06-26T05:57:10;9.68;;;2.38;;
13493;SDS011;6819;50.886;4.332;2023-06-26T05:59:37;8.48;;;2.85;;
13493;SDS011;6819;50.886;4.332;2023-06-26T06:02:06;5.68;;;2.03;;
13493;SDS011;6819;50.886;4.332;2023-06-26T06:04:32;17.23;;;2.58;;
13493;SDS011;6819;50.886;4.332;2023-06-26T06:06:58;14.25;;;2.58;;
13493;SDS011;6819;50.886;4.332;2023-06-26T06:09:24;9.35;;;2.60;;
13493;SDS011;6819;50.886;4.332;2023-06-26T06:11:50;6.38;;;2.33;;
13493;SDS011;6819;50.886;4.332;2023-06-26T06:14:16;13.18;;;2.60;;
13493;SDS011;6819;50.886;4.332;2023-06-26T06:16:42;8.77;;;2.20;;
13493;SDS011;6819;50.886;4.332;2023-06-26T06:19:08;7.70;;;2.63;;
13493;SDS011;6819;50.886;4.332;2023-06-26T06:21:36;11.38;;;2.90;;
13493;SDS011;6819;50.886;4.332;2023-06-26T06:24:02;8.68;;;2.67;;
13493;SDS011;6819;50.886;4.332;2023-06-26T06:26:28;9.70;;;2.95;;
13493;SDS011;6819;50.886;4.332;2023-06-26T06:28:54;6.53;;;2.10;;
13493;SDS011;6819;50.886;4.332;2023-06-26T06:31:20;19.58;;;3.08;;
13493;SDS011;6819;50.886;4.332;2023-06-26T06:33:46;9.30;;;2.10;;
13493;SDS011;6819;50.886;4.332;2023-06-26T06:36:12;8.60;;;2.30;;
13493;SDS011;6819;50.886;4.332;2023-06-26T06:38:38;9.63;;;2.35;;
13493;SDS011;6819;50.886;4.332;2023-06-26T06:41:04;8.85;;;2.28;;
13493;SDS011;6819;50.886;4.332;2023-06-26T06:43:30;12.35;;;2.40;;
13493;SDS011;6819;50.886;4.332;2023-06-26T06:45:56;7.88;;;2.20;;
13493;SDS011;6819;50.886;4.332;2023-06-26T06:48:23;13.75;;;2.35;;
13493;SDS011;6819;50.886;4.332;2023-06-26T06:50:49;7.80;;;1.70;;
13493;SDS011;6819;50.886;4.332;2023-06-26T06:53:15;7.63;;;2.30;;
13493;SDS011;6819;50.886;4.332;2023-06-26T06:55:41;8.10;;;2.10;;
13493;SDS011;6819;50.886;4.332;2023-06-26T06:58:07;10.55;;;2.38;;
13493;SDS011;6819;50.886;4.332;2023-06-26T07:00:33;7.10;;;1.73;;
13493;SDS011;6819;50.886;4.332;2023-06-26T07:02:59;6.60;;;2.30;;
13493;SDS011;6819;50.886;4.332;2023-06-26T07:05:25;8.48;;;1.92;;
13493;SDS011;6819;50.886;4.332;2023-06-26T07:07:51;5.40;;;1.88;;
13493;SDS011;6819;50.886;4.332;2023-06-26T07:10:17;14.60;;;2.17;;
13493;SDS011;6819;50.886;4.332;2023-06-26T07:12:43;6.57;;;1.90;;
13493;SDS011;6819;50.886;4.332;2023-06-26T07:15:10;5.68;;;2.05;;
13493;SDS011;6819;50.886;4.332;2023-06-26T07:17:36;9.32;;;2.15;;
13493;SDS011;6819;50.886;4.332;2023-06-26T07:20:05;7.40;;;2.03;;
13493;SDS011;6819;50.886;4.332;2023-06-26T07:22:33;9.45;;;2.58;;
13493;SDS011;6819;50.886;4.332;2023-06-26T07:24:59;6.13;;;2.17;;
13493;SDS011;6819;50.886;4.332;2023-06-26T07:27:25;8.80;;;2.53;;
13493;SDS011;6819;50.886;4.332;2023-06-26T07:29:51;5.70;;;1.90;;
13493;SDS011;6819;50.886;4.332;2023-06-26T07:32:17;6.72;;;2.05;;
13493;SDS011;6819;50.886;4.332;2023-06-26T07:34:43;6.45;;;1.90;;
13493;SDS011;6819;50.886;4.332;2023-06-26T07:37:09;9.80;;;2.28;;
13493;SDS011;6819;50.886;4.332;2023-06-26T07:39:35;5.82;;;2.03;;
13493;SDS011;6819;50.886;4.332;2023-06-26T07:42:01;4.85;;;1.75;;
13493;SDS011;6819;50.886;4.332;2023-06-26T07:44:27;11.65;;;2.38;;
13493;SDS011;6819;50.886;4.332;2023-06-26T07:46:53;7.47;;;2.55;;
13493;SDS011;6819;50.886;4.332;2023-06-26T07:49:19;10.55;;;2.13;;
13493;SDS011;6819;50.886;4.332;2023-06-26T07:51:45;6.47;;;1.67;;
13493;SDS011;6819;50.886;4.332;2023-06-26T07:54:11;12.10;;;2.28;;
13493;SDS011;6819;50.886;4.332;2023-06-26T07:56:56;6.18;;;2.00;;
13493;SDS011;6819;50.886;4.332;2023-06-26T08:01:49;7.88;;;2.40;;
13493;SDS011;6819;50.886;4.332;2023-06-26T08:04:17;3.40;;;1.83;;
13493;SDS011;6819;50.886;4.332;2023-06-26T08:06:43;4.65;;;2.20;;
13493;SDS011;6819;50.886;4.332;2023-06-26T08:09:09;5.03;;;2.15;;
13493;SDS011;6819;50.886;4.332;2023-06-26T08:11:37;9.43;;;2.33;;
13493;SDS011;6819;50.886;4.332;2023-06-26T08:14:03;9.88;;;2.20;;
13493;SDS011;6819;50.886;4.332;2023-06-26T08:16:31;9.77;;;2.33;;
13493;SDS011;6819;50.886;4.332;2023-06-26T08:18:57;7.45;;;2.08;;
13493;SDS011;6819;50.886;4.332;2023-06-26T08:21:23;8.23;;;2.20;;
13493;SDS011;6819;50.886;4.332;2023-06-26T08:23:49;8.73;;;2.42;;
13493;SDS011;6819;50.886;4.332;2023-06-26T08:26:15;7.65;;;2.20;;
13493;SDS011;6819;50.886;4.332;2023-06-26T08:28:41;4.45;;;2.60;;
13493;SDS011;6819;50.886;4.332;2023-06-26T08:31:07;5.55;;;2.00;;
13493;SDS011;6819;50.886;4.332;2023-06-26T08:33:33;6.18;;;1.90;;
13493;SDS011;6819;50.886;4.332;2023-06-26T08:35:59;4.57;;;1.58;;
13493;SDS011;6819;50.886;4.332;2023-06-26T08:38:25;7.53;;;2.00;;
13493;SDS011;6819;50.886;4.332;2023-06-26T08:40:52;6.95;;;1.83;;
13493;SDS011;6819;50.886;4.332;2023-06-26T08:43:18;9.68;;;2.00;;
13493;SDS011;6819;50.886;4.332;2023-06-26T08:45:44;4.68;;;1.67;;
13493;SDS011;6819;50.886;4.332;2023-06-26T08:48:11;5.55;;;1.70;;
13493;SDS011;6819;50.886;4.332;2023-06-26T08:50:38;6.07;;;1.60;;
13493;SDS011;6819;50.886;4.332;2023-06-26T08:53:08;8.18;;;2.10;;
13493;SDS011;6819;50.886;4.332;2023-06-26T08:55:38;3.40;;;1.60;;
13493;SDS011;6819;50.886;4.332;2023-06-26T08:58:04;7.47;;;2.00;;
13493;SDS011;6819;50.886;4.332;2023-06-26T09:00:30;7.22;;;2.30;;
13493;SDS011;6819;50.886;4.332;2023-06-26T09:02:56;3.22;;;2.05;;
13493;SDS011;6819;50.886;4.332;2023-06-26T09:05:22;3.80;;;1.63;;
13493;SDS011;6819;50.886;4.332;2023-06-26T09:07:48;5.97;;;1.65;;
13493;SDS011;6819;50.886;4.332;2023-06-26T09:10:14;5.65;;;1.80;;
13493;SDS011;6819;50.886;4.332;2023-06-26T09:12:41;6.32;;;1.70;;
13493;SDS011;6819;50.886;4.332;2023-06-26T09:15:07;6.43;;;1.58;;
13493;SDS011;6819;50.886;4.332;2023-06-26T09:17:33;5.68;;;1.92;;
13493;SDS011;6819;50.886;4.332;2023-06-26T09:19:59;7.28;;;2.05;;
13493;SDS011;6819;50.886;4.332;2023-06-26T09:22:25;5.07;;;1.65;;
13493;SDS011;6819;50.886;4.332;2023-06-26T09:24:52;4.53;;;1.60;;
13493;SDS011;6819;50.886;4.332;2023-06-26T09:27:18;3.95;;;1.73;;
13493;SDS011;6819;50.886;4.332;2023-06-26T09:29:47;7.63;;;1.60;;
13493;SDS011;6819;50.886;4.332;2023-06-26T09:32:14;6.15;;;1.73;;
13493;SDS011;6819;50.886;4.332;2023-06-26T09:34:41;4.45;;;1.80;;
13493;SDS011;6819;50.886;4.332;2023-06-26T09:37:07;4.28;;;1.52;;
13493;SDS011;6819;50.886;4.332;2023-06-26T09:39:33;3.88;;;1.90;;
13493;SDS011;6819;50.886;4.332;2023-06-26T09:41:59;6.70;;;1.95;;
13493;SDS011;6819;50.886;4.332;2023-06-26T09:44:27;3.67;;;1.85;;
13493;SDS011;6819;50.886;4.332;2023-06-26T09:46:54;3.95;;;1.63;;
13493;SDS011;6819;50.886;4.332;2023-06-26T09:49:20;5.25;;;1.65;;
13493;SDS011;6819;50.886;4.332;2023-06-26T09:51:46;7.88;;;1.80;;
13493;SDS011;6819;50.886;4.332;2023-06-26T09:54:15;3.42;;;1.60;;
13493;SDS011;6819;50.886;4.332;2023-06-26T09:56:42;8.90;;;2.40;;
13493;SDS011;6819;50.886;4.332;2023-06-26T09:59:08;6.25;;;1.90;;
13493;SDS011;6819;50.886;4.332;2023-06-26T10:01:36;4.63;;;1.67;;
13493;SDS011;6819;50.886;4.332;2023-06-26T10:04:02;6.18;;;1.95;;
13493;SDS011;6819;50.886;4.332;2023-06-26T10:06:33;4.10;;;1.80;;
13493;SDS011;6819;50.886;4.332;2023-06-26T10:09:02;5.03;;;1.83;;
13493;SDS011;6819;50.886;4.332;2023-06-26T10:11:34;9.68;;;2.40;;
13493;SDS011;6819;50.886;4.332;2023-06-26T10:14:01;5.53;;;1.67;;
13493;SDS011;6819;50.886;4.332;2023-06-26T10:16:29;5.47;;;1.80;;
13493;SDS011;6819;50.886;4.332;2023-06-26T10:18:58;3.22;;;1.80;;
13493;SDS011;6819;50.886;4.332;2023-06-26T10:21:26;5.00;;;2.10;;
13493;SDS011;6819;50.886;4.332;2023-06-26T10:23:53;2.95;;;1.55;;
13493;SDS011;6819;50.886;4.332;2023-06-26T10:26:20;6.13;;;1.80;;
13493;SDS011;6819;50.886;4.332;2023-06-26T10:28:47;5.57;;;1.58;;
13493;SDS011;6819;50.886;4.332;2023-06-26T10:31:17;6.22;;;1.90;;
13493;SDS011;6819;50.886;4.332;2023-06-26T10:33:44;5.45;;;2.03;;
13493;SDS011;6819;50.886;4.332;2023-06-26T10:36:14;5.60;;;1.77;;
13493;SDS011;6819;50.886;4.332;2023-06-26T10:38:50;4.22;;;1.70;;
13493;SDS011;6819;50.886;4.332;2023-06-26T10:41:21;6.45;;;1.67;;
13493;SDS011;6819;50.886;4.332;2023-06-26T10:43:51;3.80;;;1.48;;
13493;SDS011;6819;50.886;4.332;2023-06-26T10:46:18;3.42;;;1.90;;
13493;SDS011;6819;50.886;4.332;2023-06-26T10:48:58;7.65;;;1.70;;
13493;SDS011;6819;50.886;4.332;2023-06-26T10:51:25;7.85;;;2.10;;
13493;SDS011;6819;50.886;4.332;2023-06-26T10:53:54;4.75;;;2.38;;
13493;SDS011;6819;50.886;4.332;2023-06-26T10:56:21;5.05;;;1.85;;
13493;SDS011;6819;50.886;4.332;2023-06-26T10:58:47;3.65;;;1.75;;
13493;SDS011;6819;50.886;4.332;2023-06-26T11:01:17;4.78;;;2.00;;
13493;SDS011;6819;50.886;4.332;2023-06-26T11:03:45;6.22;;;1.92;;
13493;SDS011;6819;50.886;4.332;2023-06-26T11:08:44;3.05;;;1.75;;
13493;SDS011;6819;50.886;4.332;2023-06-26T11:11:11;10.25;;;2.63;;
13493;SDS011;6819;50.886;4.332;2023-06-26T11:13:37;6.35;;;1.90;;
13493;SDS011;6819;50.886;4.332;2023-06-26T11:16:03;6.43;;;2.25;;
13493;SDS011;6819;50.886;4.332;2023-06-26T11:18:31;6.13;;;1.98;;
13493;SDS011;6819;50.886;4.332;2023-06-26T11:21:07;6.93;;;2.20;;
13493;SDS011;6819;50.886;4.332;2023-06-26T11:23:33;2.88;;;1.73;;
13493;SDS011;6819;50.886;4.332;2023-06-26T11:26:19;5.97;;;2.20;;
13493;SDS011;6819;50.886;4.332;2023-06-26T11:28:50;4.10;;;2.33;;
13493;SDS011;6819;50.886;4.332;2023-06-26T11:31:29;7.28;;;2.40;;
13493;SDS011;6819;50.886;4.332;2023-06-26T11:33:56;6.70;;;2.33;;
13493;SDS011;6819;50.886;4.332;2023-06-26T11:36:28;4.13;;;1.80;;
13493;SDS011;6819;50.886;4.332;2023-06-26T11:38:54;5.68;;;2.10;;
13493;SDS011;6819;50.886;4.332;2023-06-26T11:41:21;3.20;;;2.20;;
13493;SDS011;6819;50.886;4.332;2023-06-26T11:43:47;6.32;;;2.10;;
13493;SDS011;6819;50.886;4.332;2023-06-26T11:46:15;9.55;;;2.20;;
13493;SDS011;6819;50.886;4.332;2023-06-26T11:48:42;5.13;;;1.92;;
13493;SDS011;6819;50.886;4.332;2023-06-26T11:51:08;5.28;;;2.20;;
13493;SDS011;6819;50.886;4.332;2023-06-26T11:53:39;4.95;;;2.13;;
13493;SDS011;6819;50.886;4.332;2023-06-26T11:56:09;7.40;;;2.00;;
13493;SDS011;6819;50.886;4.332;2023-06-26T11:58:36;3.60;;;1.80;;
13493;SDS011;6819;50.886;4.332;2023-06-26T12:01:02;4.13;;;1.90;;
13493;SDS011;6819;50.886;4.332;2023-06-26T12:03:28;5.75;;;2.05;;
13493;SDS011;6819;50.886;4.332;2023-06-26T12:05:55;7.80;;;2.33;;
13493;SDS011;6819;50.886;4.332;2023-06-26T12:08:21;5.15;;;1.80;;
13493;SDS011;6819;50.886;4.332;2023-06-26T12:10:47;7.15;;;2.00;;
13493;SDS011;6819;50.886;4.332;2023-06-26T12:13:13;4.97;;;2.05;;
13493;SDS011;6819;50.886;4.332;2023-06-26T12:15:40;8.82;;;2.10;;
13493;SDS011;6819;50.886;4.332;2023-06-26T12:18:09;2.85;;;1.83;;
13493;SDS011;6819;50.886;4.332;2023-06-26T12:20:39;4.78;;;2.00;;
13493;SDS011;6819;50.886;4.332;2023-06-26T12:23:11;6.30;;;2.05;;
13493;SDS011;6819;50.886;4.332;2023-06-26T12:25:37;3.95;;;1.70;;
13493;SDS011;6819;50.886;4.332;2023-06-26T12:28:03;6.40;;;2.28;;
13493;SDS011;6819;50.886;4.332;2023-06-26T12:30:29;5.07;;;1.90;;
13493;SDS011;6819;50.886;4.332;2023-06-26T12:32:55;6.78;;;1.90;;
13493;SDS011;6819;50.886;4.332;2023-06-26T12:35:21;3.55;;;1.90;;
13493;SDS011;6819;50.886;4.332;2023-06-26T12:37:47;3.22;;;1.90;;
13493;SDS011;6819;50.886;4.332;2023-06-26T12:40:19;4.55;;;1.90;;
13493;SDS011;6819;50.886;4.332;2023-06-26T12:42:49;4.03;;;1.90;;
13493;SDS011;6819;50.886;4.332;2023-06-26T12:45:15;3.15;;;1.73;;
13493;SDS011;6819;50.886;4.332;2023-06-26T12:47:41;5.53;;;1.73;;
13493;SDS011;6819;50.886;4.332;2023-06-26T12:50:07;5.53;;;2.10;;
13493;SDS011;6819;50.886;4.332;2023-06-26T12:52:33;6.07;;;2.03;;
13493;SDS011;6819;50.886;4.332;2023-06-26T12:54:59;4.80;;;2.00;;
13493;SDS011;6819;50.886;4.332;2023-06-26T12:57:25;6.07;;;2.10;;
13493;SDS011;6819;50.886;4.332;2023-06-26T12:59:52;4.85;;;2.00;;
13493;SDS011;6819;50.886;4.332;2023-06-26T13:02:18;4.75;;;1.77;;
13493;SDS011;6819;50.886;4.332;2023-06-26T13:04:44;5.10;;;1.70;;
13493;SDS011;6819;50.886;4.332;2023-06-26T13:07:10;5.15;;;2.10;;
13493;SDS011;6819;50.886;4.332;2023-06-26T13:09:36;4.53;;;1.83;;
13493;SDS011;6819;50.886;4.332;2023-06-26T13:12:03;4.38;;;1.73;;
13493;SDS011;6819;50.886;4.332;2023-06-26T13:14:30;4.60;;;1.67;;
13493;SDS011;6819;50.886;4.332;2023-06-26T13:16:56;4.22;;;1.50;;
13493;SDS011;6819;50.886;4.332;2023-06-26T13:19:22;5.47;;;1.88;;
13493;SDS011;6819;50.886;4.332;2023-06-26T13:21:48;7.80;;;2.03;;
13493;SDS011;6819;50.886;4.332;2023-06-26T13:24:14;7.78;;;2.00;;
13493;SDS011;6819;50.886;4.332;2023-06-26T13:26:40;5.65;;;1.92;;
13493;SDS011;6819;50.886;4.332;2023-06-26T13:29:06;5.40;;;1.95;;
13493;SDS011;6819;50.886;4.332;2023-06-26T13:31:32;4.50;;;1.70;;
13493;SDS011;6819;50.886;4.332;2023-06-26T13:33:59;6.75;;;2.15;;
13493;SDS011;6819;50.886;4.332;2023-06-26T13:36:25;9.05;;;2.22;;
13493;SDS011;6819;50.886;4.332;2023-06-26T13:38:52;6.93;;;1.88;;
13493;SDS011;6819;50.886;4.332;2023-06-26T13:41:24;6.00;;;1.70;;
13493;SDS011;6819;50.886;4.332;2023-06-26T13:43:51;7.75;;;1.80;;
13493;SDS011;6819;50.886;4.332;2023-06-26T13:46:17;2.95;;;1.70;;
13493;SDS011;6819;50.886;4.332;2023-06-26T13:48:46;7.22;;;1.88;;
13493;SDS011;6819;50.886;4.332;2023-06-26T13:51:12;4.25;;;1.35;;
13493;SDS011;6819;50.886;4.332;2023-06-26T13:53:38;3.40;;;1.70;;
13493;SDS011;6819;50.886;4.332;2023-06-26T13:56:04;6.03;;;1.90;;
13493;SDS011;6819;50.886;4.332;2023-06-26T13:58:30;5.32;;;1.80;;
13493;SDS011;6819;50.886;4.332;2023-06-26T14:00:58;7.13;;;2.10;;
13493;SDS011;6819;50.886;4.332;2023-06-26T14:03:26;6.00;;;2.00;;
13493;SDS011;6819;50.886;4.332;2023-06-26T14:05:53;2.78;;;1.70;;
13493;SDS011;6819;50.886;4.332;2023-06-26T14:08:19;6.38;;;1.63;;
13493;SDS011;6819;50.886;4.332;2023-06-26T14:10:45;3.53;;;1.83;;
13493;SDS011;6819;50.886;4.332;2023-06-26T14:13:11;4.70;;;1.80;;
13493;SDS011;6819;50.886;4.332;2023-06-26T14:15:40;3.33;;;1.63;;
13493;SDS011;6819;50.886;4.332;2023-06-26T14:18:06;6.07;;;1.80;;
13493;SDS011;6819;50.886;4.332;2023-06-26T14:20:32;2.50;;;1.30;;
13493;SDS011;6819;50.886;4.332;2023-06-26T14:22:58;3.38;;;1.50;;
13493;SDS011;6819;50.886;4.332;2023-06-26T14:25:25;5.57;;;1.50;;
13493;SDS011;6819;50.886;4.332;2023-06-26T14:27:53;5.30;;;1.67;;
13493;SDS011;6819;50.886;4.332;2023-06-26T14:30:19;5.15;;;1.95;;
13493;SDS011;6819;50.886;4.332;2023-06-26T14:32:45;4.40;;;1.70;;
13493;SDS011;6819;50.886;4.332;2023-06-26T14:35:11;7.22;;;2.10;;
13493;SDS011;6819;50.886;4.332;2023-06-26T14:37:37;4.88;;;2.28;;
13493;SDS011;6819;50.886;4.332;2023-06-26T14:40:04;6.43;;;2.08;;
13493;SDS011;6819;50.886;4.332;2023-06-26T14:42:31;5.15;;;1.95;;
13493;SDS011;6819;50.886;4.332;2023-06-26T14:44:57;5.57;;;2.25;;
13493;SDS011;6819;50.886;4.332;2023-06-26T14:47:23;5.10;;;2.25;;
13493;SDS011;6819;50.886;4.332;2023-06-26T14:49:49;9.20;;;3.28;;
13493;SDS011;6819;50.886;4.332;2023-06-26T14:52:15;7.38;;;3.00;;
13493;SDS011;6819;50.886;4.332;2023-06-26T14:54:41;5.68;;;2.60;;
13493;SDS011;6819;50.886;4.332;2023-06-26T14:57:07;5.10;;;2.40;;
13493;SDS011;6819;50.886;4.332;2023-06-26T14:59:33;4.13;;;2.45;;
13493;SDS011;6819;50.886;4.332;2023-06-26T15:01:59;4.40;;;1.85;;
13493;SDS011;6819;50.886;4.332;2023-06-26T15:04:25;3.63;;;2.10;;